Pagrindinis puslapis
METAR-TAF:

METAR-TAF

Oro uostai :

Budė, Norvegija

platuma: 67-16N, ilguma: 014-22E, Aukštis: 1 m

Dabartinis oras

Ataskaita buvo paskelbta 36 minutes, ne 04:50 UTC
Vėjas 10 kt iš Rytų
Temperatūra 10°C
Drėgmė 66%
Slėgis 1021 hPa
Matomumas 10 km arba daugiau
nėra debesų žemiau 1500 m ir nėra kamuolinių lietaus debesų

METAR: ENBO 220450Z 10010KT CAVOK 10/04 Q1021

Laikas: 07:26 (05:26 UTC)

Prognozė

Ataskaita buvo paskelbta 6 valandos ir 26 minutes, ne 23:00 UTC
Prognozė galioja nuo 22 metu 00 UTC su 22 metu 24 UTC
Vėjas 8 kt iš Rytų
Matomumas 10 km arba daugiau
Mažai debesys ne aukštis 4000 ft

TAF: ENBO 212300Z 2200/2224 09008KT 9999 FEW040

Orai ataskaitas ir orų prognozės (METAR, TAF).

turimą stotys yra geltonos ir raudonos taškus žemėlapyje.

Perkelti pele per norėdami pamatyti stoties vardą.

Tada spustelėkite, norėdami matyti oro stebėjimo ir prognozės.

Norėdami pakeisti žemėlapį: spustelėkite ant žalios mygtukų su juodo kryžiaus žemyn,; žalią mygtuką su brūkšneliu, jei norite nutolinti; arba žalių rodyklių gretimoms žemėlapius.


METAR-TAF: